sensor_id;sensor_type;location;lat;lon;timestamp;P1;durP1;ratioP1;P2;durP2;ratioP2
61960;SDS011;47923;42.506;24.192;2023-03-13T00:02:08;24.70;;;17.42;;
61960;SDS011;47923;42.506;24.192;2023-03-13T00:04:33;36.63;;;24.98;;
61960;SDS011;47923;42.506;24.192;2023-03-13T00:06:59;40.80;;;25.73;;
61960;SDS011;47923;42.506;24.192;2023-03-13T00:09:24;41.72;;;27.83;;
61960;SDS011;47923;42.506;24.192;2023-03-13T00:11:51;42.25;;;29.55;;
61960;SDS011;47923;42.506;24.192;2023-03-13T00:14:16;40.45;;;26.98;;
61960;SDS011;47923;42.506;24.192;2023-03-13T00:16:42;37.17;;;23.65;;
61960;SDS011;47923;42.506;24.192;2023-03-13T00:19:08;29.02;;;19.98;;
61960;SDS011;47923;42.506;24.192;2023-03-13T00:21:34;28.77;;;17.17;;
61960;SDS011;47923;42.506;24.192;2023-03-13T00:24:05;32.40;;;19.38;;
61960;SDS011;47923;42.506;24.192;2023-03-13T00:26:31;24.58;;;15.85;;
61960;SDS011;47923;42.506;24.192;2023-03-13T00:28:57;26.25;;;17.15;;
61960;SDS011;47923;42.506;24.192;2023-03-13T00:31:24;35.38;;;23.50;;
61960;SDS011;47923;42.506;24.192;2023-03-13T00:33:52;29.05;;;19.20;;
61960;SDS011;47923;42.506;24.192;2023-03-13T00:38:45;30.70;;;19.70;;
61960;SDS011;47923;42.506;24.192;2023-03-13T00:41:12;29.88;;;19.75;;
61960;SDS011;47923;42.506;24.192;2023-03-13T00:43:40;33.80;;;24.60;;
61960;SDS011;47923;42.506;24.192;2023-03-13T00:46:07;25.77;;;16.25;;
61960;SDS011;47923;42.506;24.192;2023-03-13T00:48:33;29.25;;;18.38;;
61960;SDS011;47923;42.506;24.192;2023-03-13T00:50:59;25.27;;;15.65;;
61960;SDS011;47923;42.506;24.192;2023-03-13T00:53:26;25.35;;;17.52;;
61960;SDS011;47923;42.506;24.192;2023-03-13T00:58:18;32.75;;;23.23;;
61960;SDS011;47923;42.506;24.192;2023-03-13T01:00:44;20.52;;;13.45;;
61960;SDS011;47923;42.506;24.192;2023-03-13T01:03:10;24.08;;;15.48;;
61960;SDS011;47923;42.506;24.192;2023-03-13T01:05:35;22.67;;;14.82;;
61960;SDS011;47923;42.506;24.192;2023-03-13T01:08:00;20.55;;;13.05;;
61960;SDS011;47923;42.506;24.192;2023-03-13T01:10:26;25.30;;;16.77;;
61960;SDS011;47923;42.506;24.192;2023-03-13T01:12:51;25.83;;;15.93;;
61960;SDS011;47923;42.506;24.192;2023-03-13T01:15:17;23.95;;;15.55;;
61960;SDS011;47923;42.506;24.192;2023-03-13T01:17:43;23.05;;;15.60;;
61960;SDS011;47923;42.506;24.192;2023-03-13T01:20:10;28.52;;;18.00;;
61960;SDS011;47923;42.506;24.192;2023-03-13T01:22:35;26.55;;;18.27;;
61960;SDS011;47923;42.506;24.192;2023-03-13T01:25:01;31.83;;;22.20;;
61960;SDS011;47923;42.506;24.192;2023-03-13T01:27:28;22.63;;;13.60;;
61960;SDS011;47923;42.506;24.192;2023-03-13T01:29:53;19.40;;;12.13;;
61960;SDS011;47923;42.506;24.192;2023-03-13T01:32:19;24.20;;;14.82;;
61960;SDS011;47923;42.506;24.192;2023-03-13T01:34:44;23.48;;;14.50;;
61960;SDS011;47923;42.506;24.192;2023-03-13T01:37:10;23.00;;;12.95;;
61960;SDS011;47923;42.506;24.192;2023-03-13T01:39:35;17.58;;;11.27;;
61960;SDS011;47923;42.506;24.192;2023-03-13T01:42:02;18.42;;;11.18;;
61960;SDS011;47923;42.506;24.192;2023-03-13T01:44:28;16.98;;;10.38;;
61960;SDS011;47923;42.506;24.192;2023-03-13T01:46:53;17.00;;;10.20;;
61960;SDS011;47923;42.506;24.192;2023-03-13T01:51:58;25.02;;;14.23;;
61960;SDS011;47923;42.506;24.192;2023-03-13T01:54:29;20.02;;;12.80;;
61960;SDS011;47923;42.506;24.192;2023-03-13T01:57:20;22.55;;;14.90;;
61960;SDS011;47923;42.506;24.192;2023-03-13T01:59:51;23.38;;;15.23;;
61960;SDS011;47923;42.506;24.192;2023-03-13T02:02:20;22.55;;;13.25;;
61960;SDS011;47923;42.506;24.192;2023-03-13T02:04:48;16.63;;;11.35;;
61960;SDS011;47923;42.506;24.192;2023-03-13T02:07:21;21.00;;;14.48;;
61960;SDS011;47923;42.506;24.192;2023-03-13T02:09:52;23.35;;;15.95;;
61960;SDS011;47923;42.506;24.192;2023-03-13T02:12:30;20.02;;;14.35;;
61960;SDS011;47923;42.506;24.192;2023-03-13T02:14:58;18.42;;;12.30;;
61960;SDS011;47923;42.506;24.192;2023-03-13T02:17:26;18.65;;;11.30;;
61960;SDS011;47923;42.506;24.192;2023-03-13T02:19:53;16.23;;;10.00;;
61960;SDS011;47923;42.506;24.192;2023-03-13T02:28:06;22.17;;;14.02;;
61960;SDS011;47923;42.506;24.192;2023-03-13T02:30:37;18.13;;;12.82;;
61960;SDS011;47923;42.506;24.192;2023-03-13T02:33:05;16.23;;;10.88;;
61960;SDS011;47923;42.506;24.192;2023-03-13T02:35:31;16.85;;;10.75;;
61960;SDS011;47923;42.506;24.192;2023-03-13T02:37:59;15.13;;;9.02;;
61960;SDS011;47923;42.506;24.192;2023-03-13T02:40:34;14.05;;;9.23;;
61960;SDS011;47923;42.506;24.192;2023-03-13T02:43:04;16.73;;;10.30;;
61960;SDS011;47923;42.506;24.192;2023-03-13T02:48:37;16.25;;;10.77;;
61960;SDS011;47923;42.506;24.192;2023-03-13T02:51:16;26.10;;;15.63;;
61960;SDS011;47923;42.506;24.192;2023-03-13T02:53:42;30.75;;;21.45;;
61960;SDS011;47923;42.506;24.192;2023-03-13T02:56:11;23.35;;;16.00;;
61960;SDS011;47923;42.506;24.192;2023-03-13T02:58:40;12.07;;;7.35;;
61960;SDS011;47923;42.506;24.192;2023-03-13T03:01:06;23.05;;;9.40;;
61960;SDS011;47923;42.506;24.192;2023-03-13T03:03:33;13.02;;;7.68;;
61960;SDS011;47923;42.506;24.192;2023-03-13T03:06:00;18.13;;;10.10;;
61960;SDS011;47923;42.506;24.192;2023-03-13T03:08:26;13.90;;;9.32;;
61960;SDS011;47923;42.506;24.192;2023-03-13T03:10:51;15.27;;;10.13;;
61960;SDS011;47923;42.506;24.192;2023-03-13T03:13:17;14.18;;;9.10;;
61960;SDS011;47923;42.506;24.192;2023-03-13T03:15:42;16.23;;;8.90;;
61960;SDS011;47923;42.506;24.192;2023-03-13T03:18:08;14.52;;;10.38;;
61960;SDS011;47923;42.506;24.192;2023-03-13T03:20:33;12.43;;;7.47;;
61960;SDS011;47923;42.506;24.192;2023-03-13T03:22:59;11.90;;;7.38;;
61960;SDS011;47923;42.506;24.192;2023-03-13T03:25:24;11.40;;;7.05;;
61960;SDS011;47923;42.506;24.192;2023-03-13T03:27:49;15.77;;;8.48;;
61960;SDS011;47923;42.506;24.192;2023-03-13T03:30:15;22.15;;;11.65;;
61960;SDS011;47923;42.506;24.192;2023-03-13T03:32:41;13.02;;;8.90;;
61960;SDS011;47923;42.506;24.192;2023-03-13T03:35:06;13.98;;;8.57;;
61960;SDS011;47923;42.506;24.192;2023-03-13T03:37:32;14.77;;;9.82;;
61960;SDS011;47923;42.506;24.192;2023-03-13T03:39:58;20.63;;;14.38;;
61960;SDS011;47923;42.506;24.192;2023-03-13T03:42:23;32.25;;;22.35;;
61960;SDS011;47923;42.506;24.192;2023-03-13T03:44:48;31.15;;;21.98;;
61960;SDS011;47923;42.506;24.192;2023-03-13T03:47:14;19.88;;;13.23;;
61960;SDS011;47923;42.506;24.192;2023-03-13T03:49:39;18.95;;;12.18;;
61960;SDS011;47923;42.506;24.192;2023-03-13T03:52:05;14.25;;;8.85;;
61960;SDS011;47923;42.506;24.192;2023-03-13T03:54:31;13.80;;;8.77;;
61960;SDS011;47923;42.506;24.192;2023-03-13T03:56:56;18.85;;;11.52;;
61960;SDS011;47923;42.506;24.192;2023-03-13T03:59:21;16.45;;;11.07;;
61960;SDS011;47923;42.506;24.192;2023-03-13T04:01:47;16.05;;;11.23;;
61960;SDS011;47923;42.506;24.192;2023-03-13T04:04:13;14.07;;;8.95;;
61960;SDS011;47923;42.506;24.192;2023-03-13T04:06:38;18.33;;;12.25;;
61960;SDS011;47923;42.506;24.192;2023-03-13T04:09:03;22.98;;;14.25;;
61960;SDS011;47923;42.506;24.192;2023-03-13T04:11:29;18.15;;;12.65;;
61960;SDS011;47923;42.506;24.192;2023-03-13T04:13:54;24.50;;;18.27;;
61960;SDS011;47923;42.506;24.192;2023-03-13T04:16:20;15.70;;;10.40;;
61960;SDS011;47923;42.506;24.192;2023-03-13T04:18:45;21.48;;;14.05;;
61960;SDS011;47923;42.506;24.192;2023-03-13T04:21:11;21.92;;;13.52;;
61960;SDS011;47923;42.506;24.192;2023-03-13T04:23:36;24.75;;;14.63;;
61960;SDS011;47923;42.506;24.192;2023-03-13T04:26:02;15.07;;;8.43;;
61960;SDS011;47923;42.506;24.192;2023-03-13T04:28:28;12.52;;;7.00;;
61960;SDS011;47923;42.506;24.192;2023-03-13T04:30:53;12.00;;;7.50;;
61960;SDS011;47923;42.506;24.192;2023-03-13T04:33:21;17.17;;;10.52;;
61960;SDS011;47923;42.506;24.192;2023-03-13T04:35:48;21.10;;;15.80;;
61960;SDS011;47923;42.506;24.192;2023-03-13T04:38:14;27.17;;;21.42;;
61960;SDS011;47923;42.506;24.192;2023-03-13T04:40:39;33.25;;;24.02;;
61960;SDS011;47923;42.506;24.192;2023-03-13T04:43:04;29.23;;;20.08;;
61960;SDS011;47923;42.506;24.192;2023-03-13T04:45:30;38.85;;;25.42;;
61960;SDS011;47923;42.506;24.192;2023-03-13T04:47:55;67.40;;;40.97;;
61960;SDS011;47923;42.506;24.192;2023-03-13T04:50:21;51.75;;;35.28;;
61960;SDS011;47923;42.506;24.192;2023-03-13T04:52:46;32.90;;;23.35;;
61960;SDS011;47923;42.506;24.192;2023-03-13T04:55:12;28.05;;;18.95;;
61960;SDS011;47923;42.506;24.192;2023-03-13T04:57:37;21.35;;;12.63;;
61960;SDS011;47923;42.506;24.192;2023-03-13T05:00:03;34.83;;;20.95;;
61960;SDS011;47923;42.506;24.192;2023-03-13T05:02:32;24.33;;;14.88;;
61960;SDS011;47923;42.506;24.192;2023-03-13T05:04:57;16.00;;;9.70;;
61960;SDS011;47923;42.506;24.192;2023-03-13T05:07:23;18.17;;;12.18;;
61960;SDS011;47923;42.506;24.192;2023-03-13T05:09:48;22.48;;;15.10;;
61960;SDS011;47923;42.506;24.192;2023-03-13T05:12:14;25.77;;;18.30;;
61960;SDS011;47923;42.506;24.192;2023-03-13T05:14:39;31.08;;;19.98;;
61960;SDS011;47923;42.506;24.192;2023-03-13T05:17:04;28.73;;;21.95;;
61960;SDS011;47923;42.506;24.192;2023-03-13T05:19:30;27.52;;;20.52;;
61960;SDS011;47923;42.506;24.192;2023-03-13T05:21:55;39.13;;;26.98;;
61960;SDS011;47923;42.506;24.192;2023-03-13T05:24:21;113.15;;;63.83;;
61960;SDS011;47923;42.506;24.192;2023-03-13T05:26:46;142.63;;;78.82;;
61960;SDS011;47923;42.506;24.192;2023-03-13T05:29:12;61.53;;;43.85;;
61960;SDS011;47923;42.506;24.192;2023-03-13T05:31:37;50.60;;;33.67;;
61960;SDS011;47923;42.506;24.192;2023-03-13T05:34:03;46.40;;;33.35;;
61960;SDS011;47923;42.506;24.192;2023-03-13T05:36:28;39.55;;;28.60;;
61960;SDS011;47923;42.506;24.192;2023-03-13T05:38:53;50.22;;;34.95;;
61960;SDS011;47923;42.506;24.192;2023-03-13T05:41:19;49.60;;;32.33;;
61960;SDS011;47923;42.506;24.192;2023-03-13T05:43:44;48.60;;;31.10;;
61960;SDS011;47923;42.506;24.192;2023-03-13T05:46:10;43.15;;;25.38;;
61960;SDS011;47923;42.506;24.192;2023-03-13T05:48:35;39.17;;;21.17;;
61960;SDS011;47923;42.506;24.192;2023-03-13T05:51:00;28.25;;;17.77;;
61960;SDS011;47923;42.506;24.192;2023-03-13T05:53:26;26.10;;;16.35;;
61960;SDS011;47923;42.506;24.192;2023-03-13T05:55:51;30.30;;;19.52;;
61960;SDS011;47923;42.506;24.192;2023-03-13T05:58:17;32.67;;;17.63;;
61960;SDS011;47923;42.506;24.192;2023-03-13T06:00:42;19.08;;;13.23;;
61960;SDS011;47923;42.506;24.192;2023-03-13T06:03:08;27.45;;;17.08;;
61960;SDS011;47923;42.506;24.192;2023-03-13T06:05:34;22.65;;;14.77;;
61960;SDS011;47923;42.506;24.192;2023-03-13T06:07:59;18.05;;;13.45;;
61960;SDS011;47923;42.506;24.192;2023-03-13T06:10:27;25.17;;;16.45;;
61960;SDS011;47923;42.506;24.192;2023-03-13T06:12:53;24.15;;;16.10;;
61960;SDS011;47923;42.506;24.192;2023-03-13T06:15:20;25.27;;;16.92;;
61960;SDS011;47923;42.506;24.192;2023-03-13T06:17:45;29.67;;;21.77;;
61960;SDS011;47923;42.506;24.192;2023-03-13T06:20:11;22.98;;;20.02;;
61960;SDS011;47923;42.506;24.192;2023-03-13T06:22:37;24.40;;;21.02;;
61960;SDS011;47923;42.506;24.192;2023-03-13T06:25:03;24.42;;;20.23;;
61960;SDS011;47923;42.506;24.192;2023-03-13T06:27:29;24.08;;;21.27;;
61960;SDS011;47923;42.506;24.192;2023-03-13T06:29:54;32.97;;;19.60;;
61960;SDS011;47923;42.506;24.192;2023-03-13T06:32:20;27.92;;;22.58;;
61960;SDS011;47923;42.506;24.192;2023-03-13T06:34:45;28.45;;;23.38;;
61960;SDS011;47923;42.506;24.192;2023-03-13T06:37:11;22.50;;;19.92;;
61960;SDS011;47923;42.506;24.192;2023-03-13T06:39:36;32.53;;;25.33;;
61960;SDS011;47923;42.506;24.192;2023-03-13T06:42:01;30.48;;;25.00;;
61960;SDS011;47923;42.506;24.192;2023-03-13T06:44:28;30.85;;;26.90;;
61960;SDS011;47923;42.506;24.192;2023-03-13T06:46:53;40.47;;;34.40;;
61960;SDS011;47923;42.506;24.192;2023-03-13T06:49:19;44.05;;;36.22;;
61960;SDS011;47923;42.506;24.192;2023-03-13T06:51:45;64.40;;;56.67;;
61960;SDS011;47923;42.506;24.192;2023-03-13T06:54:10;59.78;;;49.40;;
61960;SDS011;47923;42.506;24.192;2023-03-13T06:56:35;41.92;;;37.08;;
61960;SDS011;47923;42.506;24.192;2023-03-13T06:59:01;31.25;;;26.30;;
61960;SDS011;47923;42.506;24.192;2023-03-13T07:01:27;39.35;;;34.78;;
61960;SDS011;47923;42.506;24.192;2023-03-13T07:03:52;34.33;;;29.50;;
61960;SDS011;47923;42.506;24.192;2023-03-13T07:06:17;33.38;;;29.42;;
61960;SDS011;47923;42.506;24.192;2023-03-13T07:08:43;37.10;;;32.97;;
61960;SDS011;47923;42.506;24.192;2023-03-13T07:11:09;37.20;;;32.65;;
61960;SDS011;47923;42.506;24.192;2023-03-13T07:13:36;30.30;;;26.52;;
61960;SDS011;47923;42.506;24.192;2023-03-13T07:16:03;27.60;;;24.70;;
61960;SDS011;47923;42.506;24.192;2023-03-13T07:18:31;17.60;;;15.13;;
61960;SDS011;47923;42.506;24.192;2023-03-13T07:20:58;14.43;;;12.88;;
61960;SDS011;47923;42.506;24.192;2023-03-13T07:23:25;16.80;;;14.77;;
61960;SDS011;47923;42.506;24.192;2023-03-13T07:26:26;22.05;;;16.40;;
61960;SDS011;47923;42.506;24.192;2023-03-13T07:28:44;18.23;;;14.40;;
61960;SDS011;47923;42.506;24.192;2023-03-13T07:31:11;15.70;;;11.73;;
61960;SDS011;47923;42.506;24.192;2023-03-13T07:33:41;13.95;;;11.32;;
61960;SDS011;47923;42.506;24.192;2023-03-13T07:36:06;21.27;;;10.98;;
61960;SDS011;47923;42.506;24.192;2023-03-13T07:38:33;9.15;;;7.30;;
61960;SDS011;47923;42.506;24.192;2023-03-13T07:40:59;12.25;;;8.27;;
61960;SDS011;47923;42.506;24.192;2023-03-13T07:43:25;9.10;;;6.15;;
61960;SDS011;47923;42.506;24.192;2023-03-13T07:48:24;10.52;;;6.63;;
61960;SDS011;47923;42.506;24.192;2023-03-13T07:50:53;7.30;;;4.88;;
61960;SDS011;47923;42.506;24.192;2023-03-13T07:53:19;10.00;;;6.40;;
61960;SDS011;47923;42.506;24.192;2023-03-13T07:56:06;9.05;;;4.93;;
61960;SDS011;47923;42.506;24.192;2023-03-13T07:58:35;7.28;;;4.75;;
61960;SDS011;47923;42.506;24.192;2023-03-13T08:03:45;6.53;;;3.75;;
61960;SDS011;47923;42.506;24.192;2023-03-13T08:06:13;9.02;;;5.60;;
61960;SDS011;47923;42.506;24.192;2023-03-13T08:08:41;5.05;;;2.42;;
61960;SDS011;47923;42.506;24.192;2023-03-13T08:11:08;7.50;;;2.58;;
61960;SDS011;47923;42.506;24.192;2023-03-13T08:13:35;7.53;;;3.58;;
61960;SDS011;47923;42.506;24.192;2023-03-13T08:16:08;6.47;;;2.40;;
61960;SDS011;47923;42.506;24.192;2023-03-13T08:18:37;7.07;;;3.20;;
61960;SDS011;47923;42.506;24.192;2023-03-13T08:21:09;8.40;;;3.47;;
61960;SDS011;47923;42.506;24.192;2023-03-13T08:23:36;9.63;;;4.05;;
61960;SDS011;47923;42.506;24.192;2023-03-13T08:26:05;5.50;;;2.58;;
61960;SDS011;47923;42.506;24.192;2023-03-13T08:28:33;4.47;;;2.60;;
61960;SDS011;47923;42.506;24.192;2023-03-13T08:31:09;7.63;;;3.20;;
61960;SDS011;47923;42.506;24.192;2023-03-13T08:33:39;6.35;;;3.22;;
61960;SDS011;47923;42.506;24.192;2023-03-13T08:36:16;5.80;;;3.22;;
61960;SDS011;47923;42.506;24.192;2023-03-13T08:38:53;5.07;;;2.60;;
61960;SDS011;47923;42.506;24.192;2023-03-13T08:41:23;5.05;;;2.97;;
61960;SDS011;47923;42.506;24.192;2023-03-13T08:43:53;10.20;;;5.85;;
61960;SDS011;47923;42.506;24.192;2023-03-13T08:46:19;3.28;;;1.92;;
61960;SDS011;47923;42.506;24.192;2023-03-13T08:48:54;6.97;;;4.13;;
61960;SDS011;47923;42.506;24.192;2023-03-13T08:51:21;6.32;;;3.50;;
61960;SDS011;47923;42.506;24.192;2023-03-13T08:53:48;9.55;;;5.63;;
61960;SDS011;47923;42.506;24.192;2023-03-13T08:56:15;5.50;;;2.88;;
61960;SDS011;47923;42.506;24.192;2023-03-13T08:58:42;2.47;;;1.70;;
61960;SDS011;47923;42.506;24.192;2023-03-13T09:01:08;7.50;;;3.88;;
61960;SDS011;47923;42.506;24.192;2023-03-13T09:03:36;6.40;;;3.08;;
61960;SDS011;47923;42.506;24.192;2023-03-13T09:06:02;3.55;;;1.90;;
61960;SDS011;47923;42.506;24.192;2023-03-13T09:08:28;3.22;;;1.80;;
61960;SDS011;47923;42.506;24.192;2023-03-13T09:10:59;3.15;;;1.83;;
61960;SDS011;47923;42.506;24.192;2023-03-13T09:13:30;4.22;;;1.95;;
61960;SDS011;47923;42.506;24.192;2023-03-13T09:16:00;3.83;;;1.85;;
61960;SDS011;47923;42.506;24.192;2023-03-13T09:18:33;6.25;;;3.33;;
61960;SDS011;47923;42.506;24.192;2023-03-13T09:20:59;9.07;;;6.32;;
61960;SDS011;47923;42.506;24.192;2023-03-13T09:23:24;19.40;;;14.98;;
61960;SDS011;47923;42.506;24.192;2023-03-13T09:25:54;3.45;;;1.80;;
61960;SDS011;47923;42.506;24.192;2023-03-13T09:28:21;90.07;;;80.22;;
61960;SDS011;47923;42.506;24.192;2023-03-13T09:30:47;39.22;;;32.92;;
61960;SDS011;47923;42.506;24.192;2023-03-13T09:33:16;15.27;;;11.05;;
61960;SDS011;47923;42.506;24.192;2023-03-13T09:35:43;3.63;;;2.42;;
61960;SDS011;47923;42.506;24.192;2023-03-13T09:38:15;32.90;;;27.77;;
61960;SDS011;47923;42.506;24.192;2023-03-13T09:40:43;7.10;;;3.95;;
61960;SDS011;47923;42.506;24.192;2023-03-13T09:43:34;4.22;;;2.10;;
61960;SDS011;47923;42.506;24.192;2023-03-13T09:46:10;5.40;;;2.70;;
61960;SDS011;47923;42.506;24.192;2023-03-13T09:54:48;9.57;;;6.35;;
61960;SDS011;47923;42.506;24.192;2023-03-13T10:00:13;9.55;;;6.03;;
61960;SDS011;47923;42.506;24.192;2023-03-13T10:02:52;11.48;;;8.30;;
61960;SDS011;47923;42.506;24.192;2023-03-13T10:05:25;7.45;;;4.53;;
61960;SDS011;47923;42.506;24.192;2023-03-13T10:07:57;5.72;;;2.50;;
61960;SDS011;47923;42.506;24.192;2023-03-13T10:13:12;4.90;;;2.70;;
61960;SDS011;47923;42.506;24.192;2023-03-13T10:16:02;5.97;;;3.83;;
61960;SDS011;47923;42.506;24.192;2023-03-13T10:18:33;26.85;;;20.27;;
61960;SDS011;47923;42.506;24.192;2023-03-13T10:21:02;42.55;;;36.08;;
61960;SDS011;47923;42.506;24.192;2023-03-13T10:23:43;10.95;;;7.63;;
61960;SDS011;47923;42.506;24.192;2023-03-13T10:26:17;56.28;;;46.58;;
61960;SDS011;47923;42.506;24.192;2023-03-13T10:28:49;5.10;;;2.57;;
61960;SDS011;47923;42.506;24.192;2023-03-13T10:31:36;17.83;;;12.15;;
61960;SDS011;47923;42.506;24.192;2023-03-13T10:34:05;3.15;;;1.85;;
61960;SDS011;47923;42.506;24.192;2023-03-13T10:36:38;4.68;;;1.80;;
61960;SDS011;47923;42.506;24.192;2023-03-13T10:39:07;5.63;;;2.50;;
61960;SDS011;47923;42.506;24.192;2023-03-13T10:41:38;4.23;;;2.57;;
61960;SDS011;47923;42.506;24.192;2023-03-13T10:44:05;3.40;;;1.98;;
61960;SDS011;47923;42.506;24.192;2023-03-13T10:46:40;4.45;;;2.28;;
61960;SDS011;47923;42.506;24.192;2023-03-13T10:49:12;4.45;;;1.80;;
61960;SDS011;47923;42.506;24.192;2023-03-13T10:51:43;6.00;;;2.00;;
61960;SDS011;47923;42.506;24.192;2023-03-13T10:54:22;4.57;;;1.87;;
61960;SDS011;47923;42.506;24.192;2023-03-13T10:59:44;4.35;;;2.55;;
61960;SDS011;47923;42.506;24.192;2023-03-13T11:04:56;6.00;;;1.75;;
61960;SDS011;47923;42.506;24.192;2023-03-13T11:07:36;6.63;;;3.10;;
61960;SDS011;47923;42.506;24.192;2023-03-13T11:10:16;16.17;;;10.95;;
61960;SDS011;47923;42.506;24.192;2023-03-13T11:12:55;4.90;;;2.00;;
61960;SDS011;47923;42.506;24.192;2023-03-13T11:15:24;4.15;;;1.90;;
61960;SDS011;47923;42.506;24.192;2023-03-13T11:18:02;3.55;;;2.10;;
61960;SDS011;47923;42.506;24.192;2023-03-13T11:20:50;10.20;;;3.60;;
61960;SDS011;47923;42.506;24.192;2023-03-13T11:31:31;3.35;;;1.73;;
61960;SDS011;47923;42.506;24.192;2023-03-13T11:36:39;10.43;;;5.55;;
61960;SDS011;47923;42.506;24.192;2023-03-13T11:41:59;2.80;;;1.83;;
61960;SDS011;47923;42.506;24.192;2023-03-13T11:50:04;3.08;;;1.77;;
61960;SDS011;47923;42.506;24.192;2023-03-13T11:57:50;3.88;;;2.15;;
61960;SDS011;47923;42.506;24.192;2023-03-13T12:00:43;3.72;;;1.90;;
61960;SDS011;47923;42.506;24.192;2023-03-13T12:05:54;8.75;;;4.80;;
61960;SDS011;47923;42.506;24.192;2023-03-13T12:08:26;11.25;;;6.50;;
61960;SDS011;47923;42.506;24.192;2023-03-13T12:16:22;2.80;;;1.63;;
61960;SDS011;47923;42.506;24.192;2023-03-13T12:18:55;8.27;;;3.70;;
61960;SDS011;47923;42.506;24.192;2023-03-13T12:21:22;3.08;;;1.85;;
61960;SDS011;47923;42.506;24.192;2023-03-13T12:35:07;6.53;;;2.40;;
61960;SDS011;47923;42.506;24.192;2023-03-13T12:37:49;6.57;;;3.35;;
61960;SDS011;47923;42.506;24.192;2023-03-13T12:42:54;3.33;;;1.95;;
61960;SDS011;47923;42.506;24.192;2023-03-13T12:45:23;6.03;;;2.30;;
61960;SDS011;47923;42.506;24.192;2023-03-13T12:58:28;5.25;;;1.75;;
61960;SDS011;47923;42.506;24.192;2023-03-13T13:01:05;8.10;;;3.88;;
61960;SDS011;47923;42.506;24.192;2023-03-13T13:06:24;7.22;;;3.75;;
61960;SDS011;47923;42.506;24.192;2023-03-13T13:16:44;4.45;;;1.60;;
61960;SDS011;47923;42.506;24.192;2023-03-13T13:19:58;4.20;;;2.17;;
61960;SDS011;47923;42.506;24.192;2023-03-13T13:30:26;3.70;;;1.90;;
61960;SDS011;47923;42.506;24.192;2023-03-13T13:35:44;3.55;;;1.67;;
61960;SDS011;47923;42.506;24.192;2023-03-13T13:38:57;5.90;;;2.05;;
61960;SDS011;47923;42.506;24.192;2023-03-13T13:41:26;2.88;;;1.63;;
61960;SDS011;47923;42.506;24.192;2023-03-13T13:44:19;3.97;;;1.83;;
61960;SDS011;47923;42.506;24.192;2023-03-13T13:46:48;4.63;;;1.98;;
61960;SDS011;47923;42.506;24.192;2023-03-13T13:49:21;4.43;;;2.03;;
61960;SDS011;47923;42.506;24.192;2023-03-13T13:57:45;5.85;;;1.98;;
61960;SDS011;47923;42.506;24.192;2023-03-13T14:00:17;8.35;;;3.00;;
61960;SDS011;47923;42.506;24.192;2023-03-13T14:02:55;5.00;;;1.77;;
61960;SDS011;47923;42.506;24.192;2023-03-13T14:05:27;6.53;;;2.55;;
61960;SDS011;47923;42.506;24.192;2023-03-13T14:11:23;5.43;;;2.13;;
61960;SDS011;47923;42.506;24.192;2023-03-13T14:16:59;3.53;;;2.03;;
61960;SDS011;47923;42.506;24.192;2023-03-13T14:19:29;4.30;;;1.55;;
61960;SDS011;47923;42.506;24.192;2023-03-13T14:22:05;7.22;;;1.98;;
61960;SDS011;47923;42.506;24.192;2023-03-13T14:24:32;3.17;;;1.90;;
61960;SDS011;47923;42.506;24.192;2023-03-13T14:27:02;4.32;;;1.92;;
61960;SDS011;47923;42.506;24.192;2023-03-13T14:29:39;4.00;;;1.77;;
61960;SDS011;47923;42.506;24.192;2023-03-13T14:32:04;4.45;;;2.45;;
61960;SDS011;47923;42.506;24.192;2023-03-13T14:34:31;3.80;;;2.03;;
61960;SDS011;47923;42.506;24.192;2023-03-13T14:36:58;6.90;;;2.55;;
61960;SDS011;47923;42.506;24.192;2023-03-13T14:42:03;7.57;;;3.80;;
61960;SDS011;47923;42.506;24.192;2023-03-13T14:44:36;8.85;;;4.22;;
61960;SDS011;47923;42.506;24.192;2023-03-13T14:47:21;4.47;;;1.70;;
61960;SDS011;47923;42.506;24.192;2023-03-13T14:49:59;5.28;;;2.30;;
61960;SDS011;47923;42.506;24.192;2023-03-13T14:52:31;5.20;;;2.30;;
61960;SDS011;47923;42.506;24.192;2023-03-13T14:54:59;6.85;;;2.92;;
61960;SDS011;47923;42.506;24.192;2023-03-13T15:04:05;6.22;;;3.40;;
61960;SDS011;47923;42.506;24.192;2023-03-13T15:06:43;8.13;;;4.00;;
61960;SDS011;47923;42.506;24.192;2023-03-13T15:09:23;7.18;;;3.72;;
61960;SDS011;47923;42.506;24.192;2023-03-13T15:12:10;6.78;;;3.17;;
61960;SDS011;47923;42.506;24.192;2023-03-13T15:15:07;9.02;;;3.60;;
61960;SDS011;47923;42.506;24.192;2023-03-13T15:17:56;10.40;;;4.60;;
61960;SDS011;47923;42.506;24.192;2023-03-13T15:20:22;7.97;;;4.25;;
61960;SDS011;47923;42.506;24.192;2023-03-13T15:22:47;9.27;;;4.18;;
61960;SDS011;47923;42.506;24.192;2023-03-13T15:25:17;13.52;;;6.25;;
61960;SDS011;47923;42.506;24.192;2023-03-13T15:27:42;9.88;;;4.25;;
61960;SDS011;47923;42.506;24.192;2023-03-13T15:30:09;7.80;;;3.40;;
61960;SDS011;47923;42.506;24.192;2023-03-13T15:32:39;9.77;;;5.28;;
61960;SDS011;47923;42.506;24.192;2023-03-13T15:35:10;9.52;;;5.50;;
61960;SDS011;47923;42.506;24.192;2023-03-13T15:37:42;10.45;;;5.88;;
61960;SDS011;47923;42.506;24.192;2023-03-13T15:40:16;13.70;;;6.90;;
61960;SDS011;47923;42.506;24.192;2023-03-13T15:42:42;10.88;;;5.38;;
61960;SDS011;47923;42.506;24.192;2023-03-13T15:45:08;14.45;;;8.95;;
61960;SDS011;47923;42.506;24.192;2023-03-13T15:47:33;9.25;;;5.05;;
61960;SDS011;47923;42.506;24.192;2023-03-13T15:49:59;13.70;;;7.30;;
61960;SDS011;47923;42.506;24.192;2023-03-13T15:52:24;17.27;;;10.10;;
61960;SDS011;47923;42.506;24.192;2023-03-13T15:54:50;15.43;;;7.60;;
61960;SDS011;47923;42.506;24.192;2023-03-13T15:57:25;16.60;;;9.98;;
61960;SDS011;47923;42.506;24.192;2023-03-13T15:59:51;10.32;;;5.25;;
61960;SDS011;47923;42.506;24.192;2023-03-13T16:02:18;13.77;;;7.30;;
61960;SDS011;47923;42.506;24.192;2023-03-13T16:04:45;19.17;;;10.25;;
61960;SDS011;47923;42.506;24.192;2023-03-13T16:07:12;13.77;;;6.65;;
61960;SDS011;47923;42.506;24.192;2023-03-13T16:09:40;10.45;;;5.82;;
61960;SDS011;47923;42.506;24.192;2023-03-13T16:12:07;14.13;;;7.63;;
61960;SDS011;47923;42.506;24.192;2023-03-13T16:14:33;19.02;;;11.02;;
61960;SDS011;47923;42.506;24.192;2023-03-13T16:16:59;14.75;;;8.27;;
61960;SDS011;47923;42.506;24.192;2023-03-13T16:19:26;29.13;;;16.45;;
61960;SDS011;47923;42.506;24.192;2023-03-13T16:21:52;23.02;;;12.45;;
61960;SDS011;47923;42.506;24.192;2023-03-13T16:24:17;20.30;;;11.07;;
61960;SDS011;47923;42.506;24.192;2023-03-13T16:26:43;23.63;;;15.00;;
61960;SDS011;47923;42.506;24.192;2023-03-13T16:29:12;26.63;;;16.25;;
61960;SDS011;47923;42.506;24.192;2023-03-13T16:31:39;35.28;;;24.00;;
61960;SDS011;47923;42.506;24.192;2023-03-13T16:34:05;26.90;;;17.25;;
61960;SDS011;47923;42.506;24.192;2023-03-13T16:36:32;34.75;;;19.95;;
61960;SDS011;47923;42.506;24.192;2023-03-13T16:38:58;26.02;;;14.45;;
61960;SDS011;47923;42.506;24.192;2023-03-13T16:41:26;27.80;;;14.30;;
61960;SDS011;47923;42.506;24.192;2023-03-13T16:43:53;21.40;;;11.70;;
61960;SDS011;47923;42.506;24.192;2023-03-13T16:46:20;28.85;;;14.25;;
61960;SDS011;47923;42.506;24.192;2023-03-13T16:48:51;22.95;;;15.30;;